Time;durP1;ratioP1;P1;durP2;ratioP2;P2;SDS_P1;SDS_P2;PMS_P1;PMS_P2;Temp;Humidity;BMP_temperature;BMP_pressure;BME280_temperature;BME280_humidity;BME280_pressure;Samples;Min_cycle;Max_cycle;Signal;HPM_P1;HPM_P2
2023/06/09 00:01:37;;;;;;;17.23;4.20;;;;;;;15.86;100.00;101535.75;5084257;28;20096;-50
2023/06/09 00:04:03;;;;;;;15.13;4.30;;;;;;;15.84;100.00;101526.13;5076619;28;20171;-49
2023/06/09 00:06:30;;;;;;;18.27;3.85;;;;;;;15.82;100.00;101522.78;5079190;28;20039;-49
2023/06/09 00:08:57;;;;;;;18.88;3.65;;;;;;;15.77;100.00;101526.94;5070353;28;20170;-49
2023/06/09 00:11:22;;;;;;;10.53;3.50;;;;;;;15.71;100.00;101535.03;5089122;28;20028;-52
2023/06/09 00:13:48;;;;;;;13.93;4.10;;;;;;;15.67;100.00;101528.31;5090272;28;20332;-50
2023/06/09 00:16:13;;;;;;;16.45;3.60;;;;;;;15.66;100.00;101538.31;5081634;28;20026;-48
2023/06/09 00:18:40;;;;;;;17.35;3.72;;;;;;;15.68;100.00;101522.66;5084461;28;20100;-51
2023/06/09 00:21:06;;;;;;;13.55;4.15;;;;;;;15.66;100.00;101526.63;5088090;28;20667;-48
2023/06/09 00:23:32;;;;;;;13.82;4.20;;;;;;;15.62;100.00;101525.34;5074424;28;20497;-49
2023/06/09 00:25:57;;;;;;;14.40;4.38;;;;;;;15.59;100.00;101530.13;5078765;28;20064;-51
2023/06/09 00:28:23;;;;;;;13.35;4.32;;;;;;;15.61;100.00;101534.50;5068647;28;20525;-49
2023/06/09 00:30:48;;;;;;;14.93;4.10;;;;;;;15.61;100.00;101518.22;5085824;28;20039;-51
2023/06/09 00:33:14;;;;;;;16.90;5.00;;;;;;;15.60;100.00;101517.41;5090476;28;20031;-49
2023/06/09 00:35:39;;;;;;;16.75;4.40;;;;;;;15.58;100.00;101520.28;5082914;28;20119;-48
2023/06/09 00:38:04;;;;;;;12.35;3.97;;;;;;;15.56;100.00;101516.97;5083650;28;20081;-50
2023/06/09 00:40:30;;;;;;;14.70;4.22;;;;;;;15.52;100.00;101510.25;5072684;28;20521;-48
2023/06/09 00:42:55;;;;;;;16.25;4.07;;;;;;;15.49;100.00;101510.66;5075293;28;20035;-51
2023/06/09 00:45:20;;;;;;;14.48;4.03;;;;;;;15.48;100.00;101509.00;5089121;28;20111;-50
2023/06/09 00:47:46;;;;;;;17.83;4.88;;;;;;;15.44;100.00;101507.69;5083704;28;20043;-51
2023/06/09 00:50:13;;;;;;;18.20;4.88;;;;;;;15.41;100.00;101510.81;5072270;28;20020;-49
2023/06/09 00:52:40;;;;;;;14.30;3.70;;;;;;;15.39;100.00;101509.31;5073406;28;20142;-52
2023/06/09 00:55:06;;;;;;;18.17;4.53;;;;;;;15.37;100.00;101509.50;5076702;28;20498;-50
2023/06/09 00:57:33;;;;;;;18.95;4.32;;;;;;;15.34;100.00;101507.19;5078056;28;20144;-52
2023/06/09 01:00:00;;;;;;;20.42;4.25;;;;;;;15.31;100.00;101515.72;5069481;28;20033;-52
2023/06/09 01:02:25;;;;;;;21.42;5.07;;;;;;;15.23;100.00;101514.00;5083542;28;20028;-48
2023/06/09 01:04:52;;;;;;;17.30;4.65;;;;;;;15.20;100.00;101516.28;5075472;28;20039;-51
2023/06/09 01:07:31;;;;;;;20.52;4.55;;;;;;;15.19;100.00;101509.16;5092301;28;20422;-48
2023/06/09 01:10:18;;;;;;;15.48;3.83;;;;;;;15.21;100.00;101513.34;5060954;28;20718;-48
2023/06/09 01:12:49;;;;;;;12.13;4.32;;;;;;;15.18;100.00;101512.91;5074184;28;20484;-50
2023/06/09 01:15:18;;;;;;;14.85;3.95;;;;;;;15.15;100.00;101504.13;5078592;28;20028;-48
2023/06/09 01:17:48;;;;;;;18.65;4.55;;;;;;;15.15;100.00;101509.56;5088188;28;20078;-47
2023/06/09 01:20:22;;;;;;;15.40;4.20;;;;;;;15.14;100.00;101509.78;5079183;28;20075;-48
2023/06/09 01:23:08;;;;;;;15.80;4.20;;;;;;;15.08;100.00;101503.22;5090256;28;20093;-48
2023/06/09 01:25:39;;;;;;;19.38;4.55;;;;;;;15.12;100.00;101500.97;5058251;28;20036;-50
2023/06/09 01:28:08;;;;;;;12.20;3.72;;;;;;;15.08;100.00;101496.97;5092261;28;20028;-51
2023/06/09 01:30:34;;;;;;;11.85;3.72;;;;;;;15.09;100.00;101510.34;5084437;28;20028;-50
2023/06/09 01:33:03;;;;;;;16.00;4.82;;;;;;;15.12;100.00;101493.69;5080448;28;20089;-49
2023/06/09 01:35:29;;;;;;;11.15;4.03;;;;;;;15.13;100.00;101494.50;5089073;28;20092;-50
2023/06/09 01:37:56;;;;;;;14.80;3.78;;;;;;;15.11;100.00;101497.44;5085650;28;20474;-47
2023/06/09 01:40:21;;;;;;;16.65;4.60;;;;;;;15.10;100.00;101484.91;5081161;28;20675;-51
2023/06/09 01:42:46;;;;;;;19.00;4.20;;;;;;;15.07;100.00;101495.31;5072352;28;20029;-50
2023/06/09 01:45:12;;;;;;;11.57;4.07;;;;;;;15.04;100.00;101485.69;5088153;28;20056;-49
2023/06/09 01:47:37;;;;;;;16.48;3.75;;;;;;;15.04;100.00;101491.13;5077213;28;20020;-50
2023/06/09 01:50:33;;;;;;;18.40;4.40;;;;;;;14.98;100.00;101485.63;5081650;28;20040;-49
2023/06/09 01:53:05;;;;;;;19.42;4.82;;;;;;;14.93;100.00;101488.94;5073627;28;20508;-48
2023/06/09 01:55:45;;;;;;;18.58;4.55;;;;;;;14.90;100.00;101483.88;5080269;28;20029;-51
2023/06/09 01:58:17;;;;;;;15.93;4.47;;;;;;;14.89;100.00;101488.47;5084000;28;20127;-49
2023/06/09 02:00:45;;;;;;;14.43;4.63;;;;;;;14.88;100.00;101475.13;5081860;28;20074;-50
2023/06/09 02:03:10;;;;;;;;;;;;;;;14.86;100.00;101479.91;5079167;28;20052;-49
2023/06/09 02:05:36;;;;;;;19.80;4.57;;;;;;;14.84;100.00;101477.38;5077554;28;20283;-49
2023/06/09 02:08:02;;;;;;;16.13;4.55;;;;;;;14.81;100.00;101474.22;5087264;28;20074;-49
2023/06/09 02:10:29;;;;;;;15.25;4.40;;;;;;;14.82;100.00;101470.47;5089785;28;20051;-49
2023/06/09 02:12:55;;;;;;;24.85;5.38;;;;;;;14.80;100.00;101472.56;5085158;28;20028;-51
2023/06/09 02:15:20;;;;;;;16.83;5.20;;;;;;;14.79;100.00;101476.28;5092028;28;20036;-49
2023/06/09 02:17:46;;;;;;;15.80;5.05;;;;;;;14.77;100.00;101476.50;5079449;28;20112;-51
2023/06/09 02:20:11;;;;;;;17.15;4.97;;;;;;;14.73;100.00;101477.91;5092549;28;20066;-51
2023/06/09 02:22:37;;;;;;;15.88;4.78;;;;;;;14.70;100.00;101468.28;5084202;28;20531;-47
2023/06/09 02:25:05;;;;;;;18.25;4.55;;;;;;;14.70;100.00;101479.13;5072793;28;20032;-48
2023/06/09 02:27:31;;;;;;;16.20;4.47;;;;;;;14.65;100.00;101476.16;5080589;28;20035;-51
2023/06/09 02:29:57;;;;;;;12.55;4.18;;;;;;;14.67;100.00;101468.69;5093013;28;20024;-48
2023/06/09 02:32:23;;;;;;;14.43;4.40;;;;;;;14.65;100.00;101476.16;5078799;28;20528;-48
2023/06/09 02:34:48;;;;;;;20.77;4.68;;;;;;;14.67;100.00;101476.81;5082323;28;20032;-47
2023/06/09 02:37:14;;;;;;;19.63;4.75;;;;;;;14.66;100.00;101472.41;5079365;28;20030;-51
2023/06/09 02:39:39;;;;;;;17.35;4.90;;;;;;;14.65;100.00;101469.91;5079430;28;20073;-48
2023/06/09 02:42:05;;;;;;;19.70;5.35;;;;;;;14.59;100.00;101468.81;5078718;28;20055;-50
2023/06/09 02:44:37;;;;;;;10.85;4.80;;;;;;;14.60;100.00;101477.78;5076809;28;20517;-47
2023/06/09 02:47:03;;;;;;;18.70;5.25;;;;;;;14.55;100.00;101470.22;5078969;28;20327;-50
2023/06/09 02:49:30;;;;;;;16.60;5.18;;;;;;;14.54;100.00;101457.72;5091824;28;20066;-52
2023/06/09 02:51:55;;;;;;;23.25;5.32;;;;;;;14.50;100.00;101461.81;5086733;28;20048;-52
2023/06/09 02:54:21;;;;;;;15.38;4.78;;;;;;;14.47;100.00;101451.34;5080018;28;20052;-48
2023/06/09 02:56:46;;;;;;;12.73;4.75;;;;;;;14.47;100.00;101462.19;5079436;28;20085;-51
2023/06/09 02:59:11;;;;;;;15.00;4.32;;;;;;;14.41;100.00;101462.97;5078008;28;20040;-48
2023/06/09 03:01:37;;;;;;;16.42;4.47;;;;;;;14.40;100.00;101454.00;5077696;28;20016;-48
2023/06/09 03:04:06;;;;;;;10.07;4.13;;;;;;;14.41;100.00;101452.13;5083250;28;20119;-47
2023/06/09 03:06:36;;;;;;;16.50;4.45;;;;;;;14.38;100.00;101455.25;5083239;28;20119;-47
2023/06/09 03:09:02;;;;;;;15.65;4.75;;;;;;;14.35;100.00;101452.88;5088130;28;20082;-48
2023/06/09 03:11:29;;;;;;;13.55;4.72;;;;;;;14.34;100.00;101462.06;5077875;28;20122;-49
2023/06/09 03:13:54;;;;;;;15.05;4.78;;;;;;;14.35;100.00;101464.59;5076652;28;20024;-51
2023/06/09 03:16:19;;;;;;;14.55;5.00;;;;;;;14.32;100.00;101451.41;5079384;28;20391;-48
2023/06/09 03:18:46;;;;;;;12.00;4.45;;;;;;;14.28;100.00;101450.97;5080200;28;20036;-51
2023/06/09 03:21:13;;;;;;;13.52;4.82;;;;;;;14.27;100.00;101451.16;5081596;28;20039;-52
2023/06/09 03:23:38;;;;;;;17.27;5.07;;;;;;;14.26;100.00;101444.06;5089850;28;20021;-52
2023/06/09 03:26:05;;;;;;;10.55;4.82;;;;;;;14.23;100.00;101453.41;5084473;28;20154;-47
2023/06/09 03:28:30;;;;;;;16.25;5.20;;;;;;;14.18;100.00;101446.88;5069759;28;20028;-51
2023/06/09 03:30:55;;;;;;;15.00;5.28;;;;;;;14.20;100.00;101445.66;5079264;28;20049;-48
2023/06/09 03:33:21;;;;;;;10.77;4.43;;;;;;;14.20;100.00;101445.66;5087687;28;20024;-48
2023/06/09 03:35:48;;;;;;;11.57;4.32;;;;;;;14.18;100.00;101444.19;5081995;28;20036;-50
2023/06/09 03:38:13;;;;;;;18.40;5.07;;;;;;;14.16;100.00;101444.34;5089719;28;20064;-50
2023/06/09 03:40:39;;;;;;;12.95;4.53;;;;;;;14.17;100.00;101454.16;5091188;28;20097;-52
2023/06/09 03:43:04;;;;;;;14.50;5.05;;;;;;;14.19;100.00;101453.97;5085410;28;20487;-50
2023/06/09 03:45:29;;;;;;;17.92;5.63;;;;;;;14.19;100.00;101459.38;5087192;28;20028;-48
2023/06/09 03:47:56;;;;;;;19.00;4.63;;;;;;;14.14;100.00;101456.41;5079875;28;20031;-50
2023/06/09 03:50:22;;;;;;;13.15;4.60;;;;;;;14.10;100.00;101445.13;5088518;28;20020;-49
2023/06/09 03:52:47;;;;;;;13.95;4.57;;;;;;;14.14;100.00;101451.84;5081892;28;20119;-50
2023/06/09 03:55:13;;;;;;;16.48;5.55;;;;;;;14.13;100.00;101455.56;5075689;28;20052;-52
2023/06/09 03:57:38;;;;;;;10.07;4.97;;;;;;;14.13;100.00;101455.56;5081676;28;20463;-48
2023/06/09 04:00:05;;;;;;;13.48;5.00;;;;;;;14.14;100.00;101451.84;5070948;28;20025;-51
2023/06/09 04:02:30;;;;;;;12.10;4.93;;;;;;;14.17;100.00;101451.47;5089491;28;20119;-50
2023/06/09 04:04:55;;;;;;;13.95;4.93;;;;;;;14.17;100.00;101459.59;5076954;28;20455;-48
2023/06/09 04:07:21;;;;;;;12.45;4.68;;;;;;;14.14;100.00;101438.31;5084450;28;20427;-49
2023/06/09 04:09:46;;;;;;;10.52;4.80;;;;;;;14.18;100.00;101439.59;5080740;28;20089;-49
2023/06/09 04:12:11;;;;;;;15.43;4.82;;;;;;;14.19;100.00;101444.00;5073957;28;20032;-48
2023/06/09 04:14:37;;;;;;;17.35;4.38;;;;;;;14.19;100.00;101444.00;5079139;28;20040;-50
2023/06/09 04:17:03;;;;;;;16.55;5.95;;;;;;;14.18;100.00;101444.19;5079276;28;20086;-50
2023/06/09 04:19:29;;;;;;;16.73;5.00;;;;;;;14.24;100.00;101452.38;5083544;28;20047;-49
2023/06/09 04:21:54;;;;;;;14.15;4.95;;;;;;;14.25;100.00;101445.94;5089713;28;20024;-49
2023/06/09 04:24:19;;;;;;;23.15;5.80;;;;;;;14.28;100.00;101453.66;5070002;28;20047;-50
2023/06/09 04:26:47;;;;;;;10.25;5.03;;;;;;;14.28;100.00;101453.66;5069257;28;20028;-51
2023/06/09 04:29:13;;;;;;;;;;;;;;;14.30;100.00;101452.63;5076075;28;20040;-50
2023/06/09 04:31:42;;;;;;;14.80;6.05;;;;;;;14.31;100.00;101452.44;5073364;28;20319;-48
2023/06/09 04:34:12;;;;;;;15.27;5.07;;;;;;;14.34;100.00;101454.75;5068908;28;20032;-52
2023/06/09 04:36:38;;;;;;;15.00;4.80;;;;;;;14.34;100.00;101467.47;5068859;28;20127;-51
2023/06/09 04:39:05;;;;;;;16.73;5.43;;;;;;;14.38;100.00;101457.94;5077217;28;20054;-53
2023/06/09 04:41:31;;;;;;;19.42;5.70;;;;;;;14.41;100.00;101457.56;5087799;28;20494;-50
2023/06/09 04:44:03;;;;;;;11.63;4.65;;;;;;;14.49;100.00;101460.13;5086802;28;20119;-50
2023/06/09 04:46:29;;;;;;;15.85;5.63;;;;;;;14.48;100.00;101463.84;5080356;28;20035;-49
2023/06/09 04:48:55;;;;;;;19.17;5.30;;;;;;;14.55;100.00;101464.81;5077104;28;20720;-48
2023/06/09 04:51:24;;;;;;;16.23;5.25;;;;;;;14.57;100.00;101456.50;5074345;28;20107;-50
2023/06/09 04:53:49;;;;;;;18.92;4.95;;;;;;;14.60;100.00;101462.34;5076651;28;20024;-51
2023/06/09 04:56:16;;;;;;;15.90;5.00;;;;;;;14.67;100.00;101463.25;5078176;28;20508;-52
2023/06/09 04:58:42;;;;;;;18.30;5.82;;;;;;;14.70;100.00;101462.03;5073425;28;20287;-49
2023/06/09 05:01:07;;;;;;;13.77;5.32;;;;;;;14.78;100.00;101458.38;5071202;28;20373;-52
2023/06/09 05:03:33;;;;;;;12.10;4.85;;;;;;;14.79;100.00;101451.91;5090469;28;20500;-47
2023/06/09 05:05:58;;;;;;;14.95;4.90;;;;;;;14.83;100.00;101456.75;5077330;28;20029;-49
2023/06/09 05:08:24;;;;;;;16.83;5.25;;;;;;;14.88;100.00;101458.88;5085286;28;20533;-47
2023/06/09 05:10:49;;;;;;;17.30;4.95;;;;;;;14.89;100.00;101455.94;5090375;28;20640;-48
2023/06/09 05:13:15;;;;;;;15.93;5.38;;;;;;;14.98;100.00;101450.38;5090376;28;20031;-48
2023/06/09 05:15:40;;;;;;;12.60;4.63;;;;;;;15.05;100.00;101459.41;5072659;28;20064;-51
2023/06/09 05:18:07;;;;;;;16.05;5.72;;;;;;;15.14;100.00;101458.25;5084063;28;20493;-49
2023/06/09 05:20:33;;;;;;;10.82;4.47;;;;;;;15.13;100.00;101467.41;5082216;28;20527;-52
2023/06/09 05:22:58;;;;;;;15.65;4.90;;;;;;;15.22;100.00;101470.78;5072340;28;20033;-52
2023/06/09 05:25:25;;;;;;;19.17;5.78;;;;;;;15.28;100.00;101454.59;5072966;28;20020;-51
2023/06/09 05:27:50;;;;;;;14.20;5.13;;;;;;;15.28;100.00;101453.75;5077573;28;20033;-48
2023/06/09 05:30:15;;;;;;;12.25;4.60;;;;;;;15.41;100.00;101464.69;5080778;28;20375;-49
2023/06/09 05:32:41;;;;;;;18.60;5.90;;;;;;;15.45;100.00;101463.25;5085685;28;20091;-49
2023/06/09 05:35:07;;;;;;;13.48;4.88;;;;;;;15.51;100.00;101467.88;5090385;28;20024;-49
2023/06/09 05:37:32;;;;;;;10.90;4.88;;;;;;;15.52;100.00;101471.44;5088316;28;20525;-49
2023/06/09 05:39:57;;;;;;;14.68;5.00;;;;;;;15.41;100.00;101464.69;5088591;28;20100;-50
2023/06/09 05:42:23;;;;;;;15.70;4.75;;;;;;;15.40;100.00;101465.72;5079895;28;20093;-49
2023/06/09 05:44:48;;;;;;;17.98;5.63;;;;;;;15.46;100.00;101466.81;5067822;28;20488;-49
2023/06/09 05:47:13;;;;;;;18.77;5.25;;;;;;;15.54;100.00;101463.94;5083850;28;20205;-47
2023/06/09 05:49:39;;;;;;;15.52;4.93;;;;;;;15.67;100.00;101465.91;5088974;28;20035;-48
2023/06/09 05:52:04;;;;;;;17.83;5.40;;;;;;;15.70;100.00;101473.66;5088575;28;20040;-50
2023/06/09 05:54:30;;;;;;;18.10;5.70;;;;;;;15.61;100.00;101463.97;5091058;28;20039;-50
2023/06/09 05:56:55;;;;;;;17.45;5.93;;;;;;;15.59;100.00;101470.44;5073291;28;20158;-49
2023/06/09 05:59:22;;;;;;;17.52;5.85;;;;;;;15.52;100.00;101466.00;5073434;28;20176;-46
2023/06/09 06:01:48;;;;;;;19.08;5.70;;;;;;;15.52;100.00;101464.13;5092880;28;20035;-48
2023/06/09 06:04:14;;;;;;;22.40;5.78;;;;;;;15.58;100.00;101467.91;5083561;28;20020;-48
2023/06/09 06:06:39;;;;;;;19.35;6.15;;;;;;;15.65;100.00;101459.81;5093196;28;20378;-50
2023/06/09 06:09:04;;;;;;;20.17;5.97;;;;;;;15.77;100.00;101463.66;5092026;28;20446;-50
2023/06/09 06:11:31;;;;;;;18.48;5.43;;;;;;;15.88;100.00;101465.81;5092716;28;20413;-48
2023/06/09 06:13:56;;;;;;;19.27;5.35;;;;;;;15.93;100.00;101474.19;5079495;28;20486;-49
2023/06/09 06:16:21;;;;;;;19.00;5.57;;;;;;;16.06;100.00;101456.28;5075241;28;20056;-51
2023/06/09 06:18:47;;;;;;;16.27;5.75;;;;;;;16.16;100.00;101457.56;5075731;28;20028;-50
2023/06/09 06:21:12;;;;;;;12.25;5.95;;;;;;;16.30;100.00;101466.63;5090347;28;20099;-49
2023/06/09 06:23:38;;;;;;;25.52;7.07;;;;;;;16.49;100.00;101464.16;5077604;28;20039;-48
2023/06/09 06:26:05;;;;;;;18.80;6.03;;;;;;;16.63;100.00;101468.56;5072722;28;20044;-53
2023/06/09 06:28:30;;;;;;;13.57;5.75;;;;;;;16.81;100.00;101466.09;5073342;28;20041;-49
2023/06/09 06:30:56;;;;;;;19.30;6.38;;;;;;;16.81;100.00;101471.53;5073381;28;20043;-48
2023/06/09 06:33:21;;;;;;;21.55;5.70;;;;;;;16.87;100.00;101470.69;5071882;28;20115;-49
2023/06/09 06:35:46;;;;;;;14.95;5.53;;;;;;;17.01;100.00;101476.13;5073404;28;20044;-50
2023/06/09 06:38:12;;;;;;;18.23;5.72;;;;;;;17.17;100.00;101475.72;5077687;28;20032;-49
2023/06/09 06:40:37;;;;;;;17.50;6.60;;;;;;;17.28;100.00;101475.09;5080730;28;20434;-51
2023/06/09 06:43:02;;;;;;;18.90;5.97;;;;;;;17.42;100.00;101466.91;5081515;28;20370;-49
2023/06/09 06:45:28;;;;;;;19.25;6.38;;;;;;;17.59;100.00;101468.13;5081707;28;20031;-48
2023/06/09 06:47:54;;;;;;;18.38;5.75;;;;;;;17.65;100.00;101470.00;5080631;28;20467;-49
2023/06/09 06:50:20;;;;;;;21.45;6.50;;;;;;;17.75;100.00;101464.13;5080928;28;20064;-48
2023/06/09 06:52:48;;;;;;;23.33;6.65;;;;;;;17.92;100.00;101472.66;5082440;28;20016;-50
2023/06/09 06:55:13;;;;;;;21.63;6.45;;;;;;;18.06;100.00;101462.53;5077561;28;20085;-53
2023/06/09 06:57:39;;;;;;;15.07;6.30;;;;;;;18.39;100.00;101462.38;5079834;28;20029;-49
2023/06/09 07:00:09;;;;;;;15.45;6.53;;;;;;;18.82;100.00;101465.25;5080766;28;20043;-49
2023/06/09 07:02:35;;;;;;;20.23;5.65;;;;;;;19.67;100.00;101466.63;5080997;28;20031;-49
2023/06/09 07:05:00;;;;;;;14.32;6.47;;;;;;;20.29;100.00;101461.81;5081410;28;20086;-48
2023/06/09 07:07:26;;;;;;;13.00;5.65;;;;;;;20.87;100.00;101467.75;5081677;28;20033;-52
2023/06/09 07:09:51;;;;;;;10.75;5.57;;;;;;;21.46;100.00;101465.91;5066073;28;20021;-49
2023/06/09 07:12:16;;;;;;;13.88;5.70;;;;;;;22.26;100.00;101469.78;5081240;28;20028;-51
2023/06/09 07:14:42;;;;;;;18.52;6.35;;;;;;;23.05;98.32;101467.09;5066933;28;20081;-50
2023/06/09 07:17:07;;;;;;;19.45;5.68;;;;;;;23.41;96.30;101479.47;5080974;28;20035;-49
2023/06/09 07:19:35;;;;;;;14.75;6.22;;;;;;;23.46;93.51;101478.72;5080960;28;20040;-49
2023/06/09 07:22:00;;;;;;;;;;;;;;;23.12;94.56;101469.69;5083436;28;20024;-50
2023/06/09 07:24:25;;;;;;;12.80;5.60;;;;;;;23.57;93.74;101468.72;5083237;28;19908;-48
2023/06/09 07:26:51;;;;;;;11.55;5.50;;;;;;;23.88;91.88;101470.81;5082795;28;20127;-49
2023/06/09 07:29:16;;;;;;;14.98;6.65;;;;;;;24.21;89.78;101452.47;5079638;28;20172;-53
2023/06/09 07:31:41;;;;;;;20.40;6.28;;;;;;;24.31;89.29;101463.59;5078955;28;20028;-53
2023/06/09 07:34:07;;;;;;;16.02;5.57;;;;;;;24.77;88.92;101465.16;5080819;28;20569;-44
2023/06/09 07:36:34;;;;;;;16.77;5.97;;;;;;;25.18;87.83;101458.91;5082866;28;20029;-46
2023/06/09 07:39:00;;;;;;;14.82;6.28;;;;;;;25.46;85.51;101456.88;5081460;28;20381;-45
2023/06/09 07:41:28;;;;;;;15.27;5.95;;;;;;;26.03;83.24;101467.09;5082195;28;20009;-46
2023/06/09 07:43:53;;;;;;;15.60;5.55;;;;;;;26.36;79.84;101464.16;5082819;28;20047;-43
2023/06/09 07:46:18;;;;;;;14.07;5.70;;;;;;;26.72;79.58;101473.31;5079849;28;20420;-44
2023/06/09 07:48:44;;;;;;;18.95;6.45;;;;;;;27.06;80.09;101467.25;5079523;28;20032;-45
2023/06/09 07:51:13;;;;;;;19.88;5.72;;;;;;;27.32;77.08;101477.19;5078036;28;20034;-43
2023/06/09 07:53:38;;;;;;;16.08;5.50;;;;;;;27.64;75.09;101475.19;5082044;28;20024;-43
2023/06/09 07:56:04;;;;;;;13.75;6.00;;;;;;;27.71;75.16;101472.97;5081473;28;20102;-45
2023/06/09 07:58:29;;;;;;;13.93;6.03;;;;;;;27.69;73.20;101475.16;5076757;28;20070;-42
2023/06/09 08:00:55;;;;;;;17.23;5.72;;;;;;;27.31;75.29;101458.97;5079631;28;20430;-45
2023/06/09 08:03:20;;;;;;;20.33;5.82;;;;;;;27.41;76.92;101471.09;5080695;28;20020;-43
2023/06/09 08:05:46;;;;;;;12.68;5.65;;;;;;;27.53;75.32;101468.88;5079098;28;20726;-43
2023/06/09 08:08:12;;;;;;;16.15;5.70;;;;;;;27.79;73.75;101470.44;5079117;28;20036;-46
2023/06/09 08:10:37;;;;;;;14.40;6.28;;;;;;;27.89;74.37;101466.84;5079215;28;20501;-47
2023/06/09 08:13:02;;;;;;;11.07;6.18;;;;;;;27.82;73.47;101471.84;5079328;28;20016;-46
2023/06/09 08:15:28;;;;;;;16.35;5.97;;;;;;;27.84;74.14;101466.84;5077609;28;20052;-43
2023/06/09 08:17:53;;;;;;;14.18;6.20;;;;;;;27.93;74.21;101469.84;5079129;28;20020;-44
2023/06/09 08:20:18;;;;;;;15.18;6.22;;;;;;;27.64;74.75;101469.66;5081467;28;20098;-46
2023/06/09 08:22:44;;;;;;;13.77;5.75;;;;;;;27.78;74.39;101473.50;5079279;28;20043;-47
2023/06/09 08:25:11;;;;;;;17.40;6.35;;;;;;;27.51;75.16;101474.66;5078639;28;20524;-44
2023/06/09 08:27:36;;;;;;;14.82;5.95;;;;;;;27.94;76.01;101466.81;5080130;28;20196;-45
2023/06/09 08:30:03;;;;;;;17.10;6.38;;;;;;;28.45;72.96;101462.94;5078219;28;20052;-45
2023/06/09 08:32:29;;;;;;;13.40;6.45;;;;;;;28.56;71.91;101467.28;5078611;28;20028;-46
2023/06/09 08:34:55;;;;;;;12.30;6.15;;;;;;;28.63;73.05;101462.25;5076738;28;20499;-43
2023/06/09 08:37:21;;;;;;;12.57;6.00;;;;;;;29.09;71.33;101464.66;5075458;28;20067;-45
2023/06/09 08:39:47;;;;;;;8.20;5.97;;;;;;;29.06;70.18;101464.44;5076194;28;22115;-47
2023/06/09 08:42:23;;;;;;;12.07;6.32;;;;;;;29.01;71.47;101459.72;5078420;28;20383;-46
2023/06/09 08:44:50;;;;;;;20.23;6.75;;;;;;;29.29;68.65;101469.19;5079596;28;20062;-45
2023/06/09 08:47:20;;;;;;;13.75;6.85;;;;;;;29.26;69.49;101468.97;5078873;28;20027;-44
2023/06/09 08:49:48;;;;;;;16.92;6.75;;;;;;;29.07;69.09;101457.78;5079759;28;20023;-44
2023/06/09 08:52:14;;;;;;;14.13;6.53;;;;;;;28.91;71.23;101458.97;5079043;28;20031;-45
2023/06/09 08:54:40;;;;;;;16.50;7.18;;;;;;;28.92;71.61;101458.72;5080652;28;20024;-45
2023/06/09 08:57:06;;;;;;;13.13;7.18;;;;;;;29.01;70.57;101451.41;5079117;28;20098;-45
2023/06/09 08:59:34;;;;;;;14.80;6.53;;;;;;;28.89;71.88;101449.03;5074423;28;20049;-43
2023/06/09 09:02:01;;;;;;;10.45;6.25;;;;;;;29.47;70.82;101467.63;5068881;28;20059;-44
2023/06/09 09:04:26;;;;;;;17.80;7.13;;;;;;;30.13;68.56;101459.63;5068953;28;20377;-47
2023/06/09 09:06:54;;;;;;;18.80;7.23;;;;;;;30.05;67.70;101454.75;5070463;28;20509;-45
2023/06/09 09:09:19;;;;;;;16.00;6.72;;;;;;;30.15;67.74;101465.69;5070604;28;20054;-45
2023/06/09 09:11:45;;;;;;;14.43;7.60;;;;;;;29.73;67.07;101464.59;5069535;28;20084;-44
2023/06/09 09:14:11;;;;;;;15.02;7.40;;;;;;;29.48;68.49;101449.84;5070255;28;20024;-46
2023/06/09 09:16:37;;;;;;;13.03;7.33;;;;;;;29.40;68.81;101467.13;5070108;28;20033;-45
2023/06/09 09:19:05;;;;;;;18.95;7.50;;;;;;;29.12;71.22;101465.19;5068344;28;20271;-45
2023/06/09 09:21:34;;;;;;;13.20;7.13;;;;;;;29.15;71.39;101451.59;5069893;28;20111;-45
2023/06/09 09:24:01;;;;;;;16.15;6.68;;;;;;;29.73;70.38;101453.50;5071310;28;20032;-46
2023/06/09 09:26:28;;;;;;;;;;;;;;;29.77;68.56;101454.53;5074442;28;20024;-46
2023/06/09 09:28:58;;;;;;;14.35;7.70;;;;;;;29.89;69.48;101460.50;5074026;28;20023;-44
2023/06/09 09:31:32;;;;;;;18.70;7.65;;;;;;;29.45;69.53;101450.44;5090549;28;20430;-45
2023/06/09 09:33:57;;;;;;;11.23;6.22;;;;;;;29.84;70.45;101455.00;5074778;28;20029;-46
2023/06/09 09:36:23;;;;;;;11.20;7.00;;;;;;;30.32;68.84;101460.47;5074648;28;20363;-46
2023/06/09 09:38:48;;;;;;;12.50;6.88;;;;;;;30.57;66.77;101458.41;5073236;28;20058;-47
2023/06/09 09:41:14;;;;;;;12.52;6.60;;;;;;;30.83;66.65;101458.84;5074474;28;20254;-45
2023/06/09 09:43:40;;;;;;;14.15;7.90;;;;;;;30.74;65.86;101455.91;5074036;28;20540;-45
2023/06/09 09:46:07;;;;;;;13.60;8.00;;;;;;;30.47;67.96;101453.03;5074041;28;20040;-44
2023/06/09 09:48:32;;;;;;;;;;;;;;;30.37;66.78;101454.84;5074391;28;20370;-45
2023/06/09 09:50:58;;;;;;;22.10;8.30;;;;;;;30.45;66.70;101458.06;5056267;28;19908;-47
2023/06/09 09:53:24;;;;;;;11.82;7.15;;;;;;;30.43;67.48;101455.59;5072808;28;20035;-45
2023/06/09 09:55:52;;;;;;;17.58;7.97;;;;;;;30.63;66.54;101452.50;5072689;28;20091;-45
2023/06/09 09:58:19;;;;;;;15.38;7.43;;;;;;;31.03;66.06;101446.56;5073657;28;20143;-46
2023/06/09 10:00:46;;;;;;;14.80;7.55;;;;;;;31.18;64.29;101451.03;5074588;28;20022;-46
2023/06/09 10:03:19;;;;;;;16.27;7.43;;;;;;;31.19;65.85;101453.50;5073780;28;20051;-45
2023/06/09 10:05:49;;;;;;;13.88;7.35;;;;;;;31.65;63.61;101444.28;5072677;28;20067;-46
2023/06/09 10:08:27;;;;;;;15.70;8.25;;;;;;;31.70;61.81;101446.97;5073708;28;20526;-44
2023/06/09 10:10:54;;;;;;;17.63;8.23;;;;;;;31.21;64.67;101439.28;5073350;28;20029;-45
2023/06/09 10:13:22;;;;;;;18.52;7.82;;;;;;;31.47;62.64;101439.66;5073825;28;20028;-46
2023/06/09 10:15:50;;;;;;;16.95;7.68;;;;;;;31.70;63.58;101440.56;5071932;28;20041;-43
2023/06/09 10:18:20;;;;;;;16.13;7.10;;;;;;;31.88;63.14;101436.00;5071578;28;20029;-44
2023/06/09 10:20:48;;;;;;;16.00;7.70;;;;;;;32.26;60.48;101446.88;5073150;28;20028;-44
2023/06/09 10:23:14;;;;;;;15.65;7.88;;;;;;;32.48;60.07;101438.56;5071133;28;20441;-46
2023/06/09 10:25:41;;;;;;;16.05;8.07;;;;;;;32.19;59.89;101429.78;5072710;28;20354;-45
2023/06/09 10:28:07;;;;;;;12.38;7.75;;;;;;;31.52;61.50;101442.34;5071638;28;20424;-45
2023/06/09 10:30:33;;;;;;;19.17;8.48;;;;;;;31.22;62.30;101430.63;5072632;28;20074;-46
2023/06/09 10:33:04;;;;;;;16.33;7.63;;;;;;;31.55;63.74;101427.78;5072553;28;20029;-45
2023/06/09 10:35:31;;;;;;;15.57;7.07;;;;;;;31.83;61.31;101427.75;5072404;28;20055;-45
2023/06/09 10:37:58;;;;;;;;;;;;;;;32.08;62.14;101418.88;5055454;28;20154;-44
2023/06/09 10:40:40;;;;;;;11.70;7.13;;;;;;;32.08;60.00;101423.63;5071449;28;20376;-43
2023/06/09 10:43:42;;;;;;;19.75;7.20;;;;;;;31.95;61.35;101419.72;5055717;28;20497;-46
2023/06/09 10:46:12;;;;;;;18.77;7.35;;;;;;;32.44;60.52;101417.19;5051037;28;20505;-43
2023/06/09 10:48:46;;;;;;;24.05;7.72;;;;;;;32.63;59.62;101417.06;5072883;28;20485;-48
2023/06/09 10:51:26;;;;;;;11.73;7.22;;;;;;;32.41;57.39;101424.22;5071837;28;20039;-45
2023/06/09 10:54:06;;;;;;;12.80;7.32;;;;;;;32.05;59.25;101405.59;5072172;28;20029;-45
2023/06/09 10:56:33;;;;;;;11.40;7.10;;;;;;;31.90;60.81;101412.28;5071901;28;20056;-46
2023/06/09 10:58:59;;;;;;;15.05;7.38;;;;;;;31.77;62.41;101417.88;5071992;28;20119;-46
2023/06/09 11:01:24;;;;;;;12.87;7.73;;;;;;;31.77;60.47;101404.78;5072985;28;20048;-43
2023/06/09 11:03:49;;;;;;;14.00;7.83;;;;;;;31.88;61.23;101405.38;5073261;28;20030;-43
2023/06/09 11:06:15;;;;;;;16.30;7.80;;;;;;;32.18;60.67;101406.69;5072113;28;20033;-44
2023/06/09 11:09:14;;;;;;;15.23;7.60;;;;;;;32.06;60.95;101396.09;5071973;28;20425;-47
2023/06/09 11:12:08;;;;;;;15.93;7.93;;;;;;;32.24;60.82;101387.88;5071579;28;20031;-46
2023/06/09 11:14:52;;;;;;;13.38;7.90;;;;;;;32.63;59.60;101383.59;5069888;28;20036;-43